East Pine, Canada
Current Conditions -  °F | °C
As of 1:00 AM on Monday 24 Nov 2014 (Local Time) from CYDQ Reporting Station
Few Clouds Few Clouds  
Wind Chill:   Ceiling: Unl
Heat Index:   Visibility: 9mi
Dew Point: -2°   Wind: 3mph
Humidity: 85%   Direction: 220°SW
Pressure: 29.92"   Gusts: NA
Location:  55.72°N, 121.18°W
Report Text: CYDQ 240800Z AUTO 22003KT 200V260 9SM FEW230 M17/M19 A2992 RMK SLP188
Loading
Personal Weather Stations






























Interactive Weather Map New forecast layout! Learn more

10-Day Weather Forecast

Advertisements
Track Severe Weather on mobile